createdAt,value
2022-10-09T00:01:14.776Z,5.97
2022-10-09T00:03:43.617Z,6.50
2022-10-09T00:06:12.937Z,6.85
2022-10-09T00:08:41.064Z,5.88
2022-10-09T00:11:10.376Z,6.03
2022-10-09T00:13:37.886Z,6.45
2022-10-09T00:16:07.796Z,6.13
2022-10-09T00:18:35.153Z,6.70
2022-10-09T00:21:02.564Z,6.65
2022-10-09T00:23:29.363Z,5.78
2022-10-09T00:25:58.795Z,6.97
2022-10-09T00:28:28.040Z,5.95
2022-10-09T00:30:55.706Z,6.80
2022-10-09T00:33:23.013Z,5.80
2022-10-09T00:35:50.129Z,6.07
2022-10-09T00:38:16.986Z,6.55
2022-10-09T00:40:43.848Z,6.45
2022-10-09T00:43:17.567Z,6.47
2022-10-09T00:45:55.024Z,6.72
2022-10-09T00:48:23.013Z,6.63
2022-10-09T00:50:57.729Z,6.60
2022-10-09T00:53:28.731Z,5.80
2022-10-09T00:55:56.068Z,6.13
2022-10-09T00:58:24.085Z,6.60
2022-10-09T01:00:50.954Z,6.68
2022-10-09T01:03:17.761Z,6.07
2022-10-09T01:05:55.354Z,6.05
2022-10-09T01:08:28.105Z,5.45
2022-10-09T01:11:51.417Z,5.95
2022-10-09T01:14:27.671Z,5.78
2022-10-09T01:17:07.849Z,5.90
2022-10-09T01:19:46.407Z,6.35
2022-10-09T01:22:40.359Z,6.30
2022-10-09T01:25:10.803Z,5.50
2022-10-09T01:27:38.668Z,6.18
2022-10-09T01:30:08.761Z,6.13
2022-10-09T01:32:43.054Z,5.85
2022-10-09T01:35:12.629Z,6.47
2022-10-09T01:37:42.200Z,6.75
2022-10-09T01:40:10.740Z,6.63
2022-10-09T01:42:38.362Z,6.95
2022-10-09T01:45:05.565Z,6.30
2022-10-09T01:47:32.480Z,6.63
2022-10-09T01:50:23.007Z,6.43
2022-10-09T01:52:56.643Z,7.47
2022-10-09T01:55:26.911Z,7.40
2022-10-09T01:58:01.567Z,7.47
2022-10-09T02:00:33.334Z,7.05
2022-10-09T02:03:02.501Z,7.10
2022-10-09T02:05:31.245Z,7.05
2022-10-09T02:07:58.941Z,6.75
2022-10-09T02:10:26.832Z,7.15
2022-10-09T02:12:59.720Z,7.97
2022-10-09T02:15:34.961Z,6.93
2022-10-09T02:18:09.186Z,8.10
2022-10-09T02:20:39.593Z,7.00
2022-10-09T02:23:08.760Z,7.10
2022-10-09T02:25:35.819Z,6.88
2022-10-09T02:28:03.999Z,7.53
2022-10-09T02:30:44.314Z,8.20
2022-10-09T02:33:11.201Z,8.25
2022-10-09T02:35:38.432Z,7.60
2022-10-09T02:38:05.208Z,7.72
2022-10-09T02:40:32.009Z,8.35
2022-10-09T02:42:58.788Z,8.27
2022-10-09T02:45:25.598Z,8.05
2022-10-09T02:47:52.351Z,7.93
2022-10-09T02:50:19.135Z,8.40
2022-10-09T02:52:46.047Z,7.65
2022-10-09T02:55:12.992Z,8.00
2022-10-09T02:57:39.824Z,9.38
2022-10-09T03:00:07.373Z,8.25
2022-10-09T03:02:34.294Z,8.32
2022-10-09T03:05:01.246Z,8.25
2022-10-09T03:07:28.010Z,8.35
2022-10-09T03:09:54.869Z,8.65
2022-10-09T03:12:22.219Z,9.43
2022-10-09T03:14:49.070Z,9.05
2022-10-09T03:17:15.895Z,10.13
2022-10-09T03:19:42.659Z,9.90
2022-10-09T03:22:09.437Z,10.05
2022-10-09T03:24:36.199Z,9.90
2022-10-09T03:27:04.165Z,10.63
2022-10-09T03:29:31.000Z,8.93
2022-10-09T03:31:57.858Z,8.95
2022-10-09T03:34:24.705Z,8.90
2022-10-09T03:36:51.531Z,8.60
2022-10-09T03:39:18.306Z,8.65
2022-10-09T03:41:45.106Z,9.75
2022-10-09T03:44:11.908Z,9.50
2022-10-09T03:46:38.946Z,8.85
2022-10-09T03:49:05.792Z,9.73
2022-10-09T03:51:32.585Z,8.88
2022-10-09T03:53:59.359Z,9.35
2022-10-09T03:56:26.169Z,9.75
2022-10-09T03:58:52.940Z,9.48
2022-10-09T04:01:19.856Z,8.68
2022-10-09T04:03:46.655Z,8.73
2022-10-09T04:06:13.430Z,8.68
2022-10-09T04:08:40.248Z,8.60
2022-10-09T04:11:07.073Z,8.63
2022-10-09T04:13:33.856Z,8.10
2022-10-09T04:16:00.708Z,8.20
2022-10-09T04:18:27.530Z,7.60
2022-10-09T04:20:56.077Z,8.05
2022-10-09T04:23:25.046Z,7.18
2022-10-09T04:25:56.661Z,7.28
2022-10-09T04:28:24.125Z,7.10
2022-10-09T04:30:51.048Z,7.43
2022-10-09T04:33:18.256Z,7.47
2022-10-09T04:35:50.244Z,7.30
2022-10-09T04:38:17.027Z,7.10
2022-10-09T04:40:44.001Z,7.10
2022-10-09T04:43:10.800Z,7.00
2022-10-09T04:45:41.557Z,7.20
2022-10-09T04:48:08.364Z,7.15
2022-10-09T04:50:38.457Z,7.05
2022-10-09T04:53:05.309Z,6.82
2022-10-09T04:55:32.136Z,7.30
2022-10-09T04:57:58.893Z,7.20
2022-10-09T05:00:25.838Z,6.68
2022-10-09T05:02:52.673Z,7.05
2022-10-09T05:05:19.516Z,7.28
2022-10-09T05:07:46.375Z,7.63
2022-10-09T05:10:13.243Z,7.60
2022-10-09T05:12:40.039Z,8.32
2022-10-09T05:15:07.401Z,7.72
2022-10-09T05:17:34.221Z,8.32
2022-10-09T05:20:01.086Z,7.72
2022-10-09T05:22:27.883Z,7.75
2022-10-09T05:24:54.694Z,7.43
2022-10-09T05:27:21.498Z,7.93
2022-10-09T05:29:48.323Z,7.65
2022-10-09T05:32:15.186Z,8.27
2022-10-09T05:34:42.017Z,8.25
2022-10-09T05:37:08.834Z,8.15
2022-10-09T05:39:39.448Z,8.13
2022-10-09T05:42:06.360Z,7.50
2022-10-09T05:44:33.152Z,8.20
2022-10-09T05:47:00.053Z,7.65
2022-10-09T05:49:26.880Z,8.00
2022-10-09T05:51:54.720Z,7.45
2022-10-09T05:54:21.665Z,7.57
2022-10-09T05:56:48.467Z,7.53
2022-10-09T05:59:20.844Z,8.18
2022-10-09T06:01:50.200Z,7.93
2022-10-09T06:04:22.089Z,7.20
2022-10-09T06:06:49.765Z,6.65
2022-10-09T06:09:18.586Z,8.65
2022-10-09T06:11:46.103Z,8.35
2022-10-09T06:14:13.711Z,7.55
2022-10-09T06:16:42.865Z,8.07
2022-10-09T06:19:12.768Z,8.02
2022-10-09T06:21:39.599Z,8.13
2022-10-09T06:24:07.245Z,7.82
2022-10-09T06:26:34.438Z,6.80
2022-10-09T06:29:02.268Z,6.85
2022-10-09T06:31:31.395Z,7.43
2022-10-09T06:34:03.326Z,7.35
2022-10-09T06:36:33.009Z,6.80
2022-10-09T06:39:01.139Z,7.40
2022-10-09T06:41:29.275Z,6.72
2022-10-09T06:44:01.212Z,7.10
2022-10-09T06:46:35.076Z,7.00
2022-10-09T06:49:03.017Z,7.22
2022-10-09T06:51:30.590Z,7.38
2022-10-09T06:54:00.896Z,6.95
2022-10-09T06:56:30.579Z,6.60
2022-10-09T06:59:00.641Z,6.03
2022-10-09T07:01:30.860Z,5.70
2022-10-09T07:04:14.686Z,6.57
2022-10-09T07:06:44.151Z,6.35
2022-10-09T07:09:13.957Z,6.20
2022-10-09T07:11:43.442Z,5.53
2022-10-09T07:14:12.026Z,6.80
2022-10-09T07:16:44.706Z,6.13
2022-10-09T07:19:12.982Z,5.70
2022-10-09T07:21:42.452Z,5.60
2022-10-09T07:24:10.076Z,5.77
2022-10-09T07:26:39.286Z,5.80
2022-10-09T07:29:08.485Z,6.03
2022-10-09T07:31:35.488Z,5.23
2022-10-09T07:34:02.851Z,5.70
2022-10-09T07:36:29.819Z,6.90
2022-10-09T07:38:57.809Z,5.80
2022-10-09T07:41:55.319Z,6.00
2022-10-09T07:44:24.716Z,6.57
2022-10-09T07:50:23.093Z,7.10
2022-10-09T08:19:04.198Z,5.50
2022-10-09T08:24:41.716Z,5.33
2022-10-09T08:27:19.758Z,5.43
2022-10-09T08:40:26.229Z,5.60
2022-10-09T08:51:09.884Z,5.47
2022-10-09T08:54:32.223Z,5.73
2022-10-09T08:58:02.421Z,6.17
2022-10-09T09:01:08.015Z,5.60
2022-10-09T09:04:36.801Z,5.07
2022-10-09T09:15:45.790Z,5.87
2022-10-09T14:29:08.116Z,4.97
2022-10-09T14:31:35.267Z,4.73
2022-10-09T14:34:24.786Z,4.70
2022-10-09T14:40:30.407Z,4.97
2022-10-09T14:42:57.632Z,4.33
2022-10-09T14:46:25.138Z,3.70
2022-10-09T14:49:21.680Z,4.10
2022-10-09T14:55:40.459Z,4.60
2022-10-09T17:03:10.726Z,3.83
2022-10-09T17:06:12.740Z,4.40
2022-10-09T17:19:03.446Z,4.70
2022-10-09T17:21:34.420Z,4.60
2022-10-09T17:24:03.690Z,3.73
2022-10-09T17:26:36.368Z,3.80
2022-10-09T17:29:04.662Z,4.23
2022-10-09T17:31:32.037Z,3.80
2022-10-09T17:34:01.746Z,3.60
2022-10-09T17:36:31.995Z,3.90
2022-10-09T17:38:59.501Z,3.83
2022-10-09T17:41:27.090Z,3.60
2022-10-09T17:43:55.228Z,4.47
2022-10-09T17:46:23.521Z,4.30
2022-10-09T17:48:53.406Z,4.30
2022-10-09T17:51:40.426Z,4.57
2022-10-09T17:54:12.228Z,4.40
2022-10-09T17:56:39.865Z,4.37
2022-10-09T17:59:07.281Z,3.90
2022-10-09T18:01:34.810Z,4.73
2022-10-09T18:04:02.045Z,3.97
2022-10-09T18:06:33.073Z,4.97
2022-10-09T18:08:59.996Z,4.43
2022-10-09T18:11:27.764Z,4.40
2022-10-09T18:13:54.764Z,4.30
2022-10-09T18:16:31.413Z,4.07
2022-10-09T18:19:06.253Z,4.30
2022-10-09T18:21:34.104Z,4.67
2022-10-09T18:24:01.157Z,5.00
2022-10-09T18:26:28.079Z,4.67
2022-10-09T18:28:54.983Z,4.67
2022-10-09T18:31:23.817Z,4.67
2022-10-09T18:33:52.062Z,5.00
2022-10-09T18:36:22.820Z,4.30
2022-10-09T18:38:55.252Z,4.57
2022-10-09T18:41:23.120Z,5.00
2022-10-09T18:43:51.487Z,4.40
2022-10-09T18:46:22.440Z,4.93
2022-10-09T18:48:50.572Z,5.07
2022-10-09T18:51:20.133Z,5.30
2022-10-09T18:53:52.172Z,4.67
2022-10-09T18:56:21.264Z,5.10
2022-10-09T18:58:50.857Z,4.73
2022-10-09T19:01:17.700Z,4.57
2022-10-09T19:03:47.474Z,5.30
2022-10-09T19:06:18.082Z,5.20
2022-10-09T19:08:45.064Z,4.40
2022-10-09T19:11:14.361Z,4.60
2022-10-09T19:13:42.952Z,4.73
2022-10-09T19:16:09.963Z,5.13
2022-10-09T19:18:37.793Z,5.40
2022-10-09T19:21:05.022Z,5.00
2022-10-09T19:23:31.945Z,4.80
2022-10-09T19:25:59.915Z,4.90
2022-10-09T19:28:30.711Z,5.40
2022-10-09T19:30:57.820Z,4.90
2022-10-09T19:33:24.794Z,4.87
2022-10-09T19:35:54.285Z,4.70
2022-10-09T19:38:22.551Z,4.40
2022-10-09T19:40:50.164Z,4.60
2022-10-09T19:43:19.614Z,4.50
2022-10-09T19:45:49.295Z,3.70
2022-10-09T19:48:17.687Z,4.60
2022-10-09T19:50:46.196Z,5.03
2022-10-09T19:53:13.503Z,4.57
2022-10-09T19:55:40.356Z,4.70
2022-10-09T19:58:07.365Z,5.20
2022-10-09T20:00:34.268Z,4.73
2022-10-09T20:03:01.096Z,4.70
2022-10-09T20:05:27.961Z,4.60
2022-10-09T20:07:54.778Z,4.47
2022-10-09T20:10:21.613Z,4.50
2022-10-09T20:12:49.736Z,3.88
2022-10-09T20:15:16.850Z,4.17
2022-10-09T20:17:43.805Z,5.30
2022-10-09T20:20:10.983Z,4.95
2022-10-09T20:22:37.838Z,5.00
2022-10-09T20:25:05.191Z,4.95
2022-10-09T20:27:32.089Z,5.10
2022-10-09T20:29:58.883Z,5.10
2022-10-09T20:32:25.840Z,5.05
2022-10-09T20:34:52.649Z,5.00
2022-10-09T20:37:19.639Z,5.35
2022-10-09T20:39:46.522Z,5.53
2022-10-09T20:42:13.369Z,4.90
2022-10-09T20:44:40.475Z,5.33
2022-10-09T20:47:07.684Z,5.25
2022-10-09T20:49:34.534Z,6.05
2022-10-09T20:52:01.376Z,5.23
2022-10-09T20:54:30.377Z,5.30
2022-10-09T20:56:58.440Z,5.38
2022-10-09T20:59:25.233Z,5.10
2022-10-09T21:01:52.072Z,5.30
2022-10-09T21:04:18.882Z,4.70
2022-10-09T21:06:45.711Z,5.28
2022-10-09T21:09:12.545Z,5.20
2022-10-09T21:11:41.393Z,5.28
2022-10-09T21:14:09.371Z,5.40
2022-10-09T21:16:36.139Z,5.40
2022-10-09T21:19:05.395Z,5.07
2022-10-09T21:21:32.398Z,4.63
2022-10-09T21:24:00.872Z,5.15
2022-10-09T21:26:28.973Z,5.72
2022-10-09T21:28:59.616Z,5.05
2022-10-09T21:31:31.188Z,5.55
2022-10-09T21:33:59.647Z,5.80
2022-10-09T21:37:01.762Z,4.60
2022-10-09T21:39:30.320Z,5.32
2022-10-09T21:41:57.232Z,4.70
2022-10-09T21:44:24.061Z,5.17
2022-10-09T21:46:50.832Z,5.57
2022-10-09T21:49:24.141Z,5.00
2022-10-09T21:51:50.954Z,5.15
2022-10-09T21:54:18.201Z,5.07
2022-10-09T21:56:45.136Z,5.30
2022-10-09T21:59:12.105Z,5.82
2022-10-09T22:01:39.028Z,5.70
2022-10-09T22:04:05.911Z,5.35
2022-10-09T22:06:32.711Z,5.75
2022-10-09T22:09:00.005Z,5.20
2022-10-09T22:11:26.832Z,5.20
2022-10-09T22:13:55.598Z,5.60
2022-10-09T22:16:22.420Z,5.10
2022-10-09T22:18:49.265Z,5.55
2022-10-09T22:21:17.017Z,5.80
2022-10-09T22:23:43.945Z,5.70
2022-10-09T22:26:13.504Z,6.10
2022-10-09T22:28:40.376Z,5.70
2022-10-09T22:31:25.646Z,5.80
2022-10-09T22:33:55.063Z,5.15
2022-10-09T22:36:24.069Z,6.25
2022-10-09T22:38:54.266Z,6.00
2022-10-09T22:41:22.772Z,5.60
2022-10-09T22:43:52.890Z,5.63
2022-10-09T22:46:24.723Z,6.35
2022-10-09T22:48:52.466Z,6.68
2022-10-09T22:51:20.945Z,6.72
2022-10-09T22:53:48.025Z,6.00
2022-10-09T22:56:20.448Z,6.07
2022-10-09T22:58:48.507Z,6.07
2022-10-09T23:01:23.512Z,6.38
2022-10-09T23:03:50.701Z,6.60
2022-10-09T23:06:19.281Z,6.15
2022-10-09T23:08:48.087Z,6.75
2022-10-09T23:11:16.240Z,6.65
2022-10-09T23:13:43.734Z,6.50
2022-10-09T23:16:12.216Z,7.10
2022-10-09T23:18:40.532Z,7.28
2022-10-09T23:21:11.039Z,6.72
2022-10-09T23:23:37.918Z,7.10
2022-10-09T23:26:11.071Z,6.70
2022-10-09T23:28:38.796Z,6.90
2022-10-09T23:31:10.783Z,7.75
2022-10-09T23:33:42.844Z,8.48
2022-10-09T23:36:12.685Z,9.02
2022-10-09T23:38:39.808Z,9.00
2022-10-09T23:41:10.711Z,8.70
2022-10-09T23:43:39.561Z,9.63
2022-10-09T23:46:10.535Z,8.90
2022-10-09T23:48:37.505Z,8.95
2022-10-09T23:51:06.092Z,8.52
2022-10-09T23:53:33.664Z,8.15
2022-10-09T23:56:00.770Z,8.40
2022-10-09T23:58:27.540Z,7.70
